createdAt,value
2022-12-19T00:00:43.511Z,1014.59
2022-12-19T00:02:36.082Z,1014.59
2022-12-19T00:04:41.425Z,1014.48
2022-12-19T00:06:35.161Z,1014.48
2022-12-19T00:08:51.209Z,1014.44
2022-12-19T00:10:35.713Z,1014.44
2022-12-19T00:12:41.931Z,1014.46
2022-12-19T00:14:35.373Z,1014.46
2022-12-19T00:16:36.008Z,1014.59
2022-12-19T00:18:36.101Z,1014.59
2022-12-19T00:20:38.498Z,1014.59
2022-12-19T00:22:35.807Z,1014.59
2022-12-19T00:24:44.333Z,1014.36
2022-12-19T00:26:35.612Z,1014.36
2022-12-19T00:28:35.515Z,1014.2
2022-12-19T00:30:37.294Z,1014.2
2022-12-19T00:32:38.584Z,1014.21
2022-12-19T00:34:35.579Z,1014.21
2022-12-19T00:36:37.435Z,1014.21
2022-12-19T00:38:34.971Z,1014.21
2022-12-19T00:40:36.541Z,1013.94
2022-12-19T00:42:35.661Z,1013.94
2022-12-19T00:44:36.419Z,1014.01
2022-12-19T00:46:35.360Z,1014.01
2022-12-19T00:48:38.566Z,1013.94
2022-12-19T00:50:35.671Z,1013.94
2022-12-19T00:52:36.553Z,1013.94
2022-12-19T00:54:39.920Z,1013.94
2022-12-19T00:56:37.524Z,1013.88
2022-12-19T00:58:35.815Z,1013.88
2022-12-19T01:00:38.716Z,1013.73
2022-12-19T01:02:36.002Z,1013.73
2022-12-19T01:05:04.703Z,1013.7
2022-12-19T01:06:35.882Z,1013.7
2022-12-19T01:08:37.013Z,1013.78
2022-12-19T01:10:35.959Z,1013.78
2022-12-19T01:12:36.294Z,1013.61
2022-12-19T01:14:43.389Z,1013.61
2022-12-19T01:16:36.094Z,1013.6
2022-12-19T01:18:36.013Z,1013.6
2022-12-19T01:20:41.356Z,1013.64
2022-12-19T01:22:36.379Z,1013.64
2022-12-19T01:24:36.139Z,1013.67
2022-12-19T01:26:35.537Z,1013.67
2022-12-19T01:28:37.382Z,1013.51
2022-12-19T01:30:37.339Z,1013.51
2022-12-19T01:32:35.773Z,1013.45
2022-12-19T01:34:36.013Z,1013.45
2022-12-19T01:36:38.036Z,1013.27
2022-12-19T01:38:42.608Z,1013.28
2022-12-19T01:40:35.955Z,1013.28
2022-12-19T01:42:35.627Z,1013.28
2022-12-19T01:44:35.648Z,1013.28
2022-12-19T01:46:40.282Z,1013.24
2022-12-19T01:48:35.164Z,1013.24
2022-12-19T01:50:35.507Z,1013.05
2022-12-19T01:52:46.271Z,1013.05
2022-12-19T01:54:35.001Z,1013.07
2022-12-19T01:56:42.720Z,1013.07
2022-12-19T01:58:35.844Z,1013.11
2022-12-19T02:00:38.382Z,1013.11
2022-12-19T02:02:36.003Z,1012.99
2022-12-19T02:04:35.940Z,1012.99
2022-12-19T02:06:35.175Z,1012.9
2022-12-19T02:08:35.310Z,1012.9
2022-12-19T02:10:35.849Z,1012.81
2022-12-19T02:12:36.064Z,1012.81
2022-12-19T02:14:35.476Z,1012.8
2022-12-19T02:16:41.502Z,1012.8
2022-12-19T02:18:35.180Z,1012.67
2022-12-19T02:20:35.600Z,1012.67
2022-12-19T02:22:41.579Z,1012.62
2022-12-19T02:24:35.102Z,1012.62
2022-12-19T02:26:35.498Z,1012.52
2022-12-19T02:28:36.530Z,1012.52
2022-12-19T02:30:35.113Z,1012.33
2022-12-19T02:32:36.288Z,1012.33
2022-12-19T02:34:38.857Z,1012.42
2022-12-19T02:36:38.968Z,1012.42
2022-12-19T02:38:37.334Z,1012.48
2022-12-19T02:40:35.728Z,1012.48
2022-12-19T02:42:39.310Z,1012.38
2022-12-19T02:44:35.250Z,1012.38
2022-12-19T02:46:35.837Z,1012.22
2022-12-19T02:48:42.475Z,1012.22
2022-12-19T02:50:35.519Z,1012.3
2022-12-19T02:52:35.732Z,1012.3
2022-12-19T02:54:35.048Z,1012.23
2022-12-19T02:56:37.806Z,1012.23
2022-12-19T02:58:35.688Z,1012.33
2022-12-19T03:00:38.823Z,1012.33
2022-12-19T03:02:36.641Z,1012.06
2022-12-19T03:04:36.496Z,1012.06
2022-12-19T03:06:35.513Z,1012.13
2022-12-19T03:08:37.376Z,1012.13
2022-12-19T03:10:35.316Z,1012.19
2022-12-19T03:12:39.976Z,1012.19
2022-12-19T03:14:35.903Z,1012.09
2022-12-19T03:16:35.490Z,1012.09
2022-12-19T03:18:35.602Z,1012.16
2022-12-19T03:20:35.976Z,1012.16
2022-12-19T03:22:35.292Z,1011.95
2022-12-19T03:24:35.715Z,1011.95
2022-12-19T03:26:35.144Z,1011.98
2022-12-19T03:28:35.554Z,1011.98
2022-12-19T03:30:36.093Z,1011.93
2022-12-19T03:32:35.278Z,1011.93
2022-12-19T03:34:36.477Z,1011.86
2022-12-19T03:36:35.944Z,1011.86
2022-12-19T03:38:35.054Z,1011.75
2022-12-19T03:40:36.380Z,1011.75
2022-12-19T03:42:36.119Z,1011.78
2022-12-19T03:44:35.334Z,1011.78
2022-12-19T03:46:35.596Z,1011.88
2022-12-19T03:48:35.949Z,1011.88
2022-12-19T03:50:36.274Z,1011.74
2022-12-19T03:52:35.625Z,1011.74
2022-12-19T03:54:36.658Z,1011.66
2022-12-19T03:56:35.409Z,1011.66
2022-12-19T03:58:35.942Z,1011.75
2022-12-19T04:00:38.738Z,1011.75
2022-12-19T04:02:36.190Z,1011.77
2022-12-19T04:04:35.747Z,1011.77
2022-12-19T04:06:35.983Z,1011.78
2022-12-19T04:08:35.251Z,1011.78
2022-12-19T04:10:35.716Z,1011.75
2022-12-19T04:12:36.014Z,1011.75
2022-12-19T04:14:35.554Z,1011.64
2022-12-19T04:16:35.904Z,1011.64
2022-12-19T04:18:35.091Z,1011.71
2022-12-19T04:20:35.682Z,1011.71
2022-12-19T04:22:35.830Z,1011.55
2022-12-19T04:24:35.045Z,1011.55
2022-12-19T04:26:35.570Z,1011.72
2022-12-19T04:28:35.732Z,1011.72
2022-12-19T04:30:36.575Z,1011.59
2022-12-19T04:32:35.414Z,1011.59
2022-12-19T04:34:38.945Z,1011.66
2022-12-19T04:36:35.965Z,1011.66
2022-12-19T04:38:35.298Z,1011.65
2022-12-19T04:40:40.942Z,1011.65
2022-12-19T04:42:35.973Z,1011.59
2022-12-19T04:44:35.107Z,1011.59
2022-12-19T04:46:35.796Z,1011.57
2022-12-19T04:48:35.934Z,1011.57
2022-12-19T04:50:36.945Z,1011.64
2022-12-19T04:52:35.589Z,1011.64
2022-12-19T04:54:35.542Z,1011.51
2022-12-19T04:56:35.695Z,1011.51
2022-12-19T04:58:42.861Z,1011.43
2022-12-19T05:00:39.146Z,1011.43
2022-12-19T05:02:36.103Z,1011.41
2022-12-19T05:04:38.879Z,1011.51
2022-12-19T05:06:35.999Z,1011.51
2022-12-19T05:08:35.874Z,1011.36
2022-12-19T05:10:35.616Z,1011.36
2022-12-19T05:12:35.944Z,1011.53
2022-12-19T05:14:35.181Z,1011.53
2022-12-19T05:16:35.981Z,1011.43
2022-12-19T05:18:35.932Z,1011.43
2022-12-19T05:20:35.314Z,1011.48
2022-12-19T05:22:35.892Z,1011.48
2022-12-19T05:24:35.956Z,1011.49
2022-12-19T05:26:35.454Z,1011.49
2022-12-19T05:28:35.568Z,1011.39
2022-12-19T05:30:36.137Z,1011.39
2022-12-19T05:32:35.340Z,1011.39
2022-12-19T05:34:35.666Z,1011.39
2022-12-19T05:36:43.500Z,1011.45
2022-12-19T05:38:35.280Z,1011.45
2022-12-19T05:40:35.851Z,1011.39
2022-12-19T05:42:35.532Z,1011.39
2022-12-19T05:44:36.490Z,1011.49
2022-12-19T05:46:35.724Z,1011.49
2022-12-19T05:48:35.879Z,1011.36
2022-12-19T05:50:36.119Z,1011.36
2022-12-19T05:52:35.545Z,1011.28
2022-12-19T05:54:35.684Z,1011.28
2022-12-19T05:56:36.039Z,1011.32
2022-12-19T05:58:35.174Z,1011.32
2022-12-19T06:00:39.020Z,1011.31
2022-12-19T06:02:36.585Z,1011.31
2022-12-19T06:04:36.184Z,1011.38
2022-12-19T06:06:35.331Z,1011.38
2022-12-19T06:08:35.518Z,1011.14
2022-12-19T06:10:36.045Z,1011.14
2022-12-19T06:12:35.301Z,1011.28
2022-12-19T06:14:36.167Z,1011.28
2022-12-19T06:16:36.239Z,1011.2
2022-12-19T06:18:36.686Z,1011.2
2022-12-19T06:20:35.656Z,1011.24
2022-12-19T06:22:35.894Z,1011.24
2022-12-19T06:24:35.532Z,1011.22
2022-12-19T06:26:41.480Z,1011.22
2022-12-19T06:28:35.874Z,1011.25
2022-12-19T06:30:35.059Z,1011.25
2022-12-19T06:32:38.049Z,1011.37
2022-12-19T06:35:16.005Z,1011.37
2022-12-19T06:36:36.007Z,1011.19
2022-12-19T06:38:35.321Z,1011.19
2022-12-19T06:40:35.816Z,1011.23
2022-12-19T06:42:35.974Z,1011.23
2022-12-19T06:44:35.253Z,1011.29
2022-12-19T06:46:35.981Z,1011.29
2022-12-19T06:48:36.091Z,1011.31
2022-12-19T06:50:35.340Z,1011.31
2022-12-19T06:52:43.166Z,1011.32
2022-12-19T06:54:35.993Z,1011.32
2022-12-19T06:56:35.756Z,1011.39
2022-12-19T06:58:35.920Z,1011.39
2022-12-19T07:00:42.139Z,1011.46
2022-12-19T07:02:36.563Z,1011.46
2022-12-19T07:04:35.178Z,1011.46
2022-12-19T07:06:35.447Z,1011.46
2022-12-19T07:08:35.791Z,1011.46
2022-12-19T07:10:35.463Z,1011.46
2022-12-19T07:12:35.438Z,1011.47
2022-12-19T07:14:35.539Z,1011.47
2022-12-19T07:16:36.034Z,1011.46
2022-12-19T07:18:36.022Z,1011.46
2022-12-19T07:20:38.714Z,1011.53
2022-12-19T07:22:35.749Z,1011.53
2022-12-19T07:24:36.004Z,1011.54
2022-12-19T07:26:35.496Z,1011.54
2022-12-19T07:28:35.633Z,1011.51
2022-12-19T07:30:35.750Z,1011.51
2022-12-19T07:32:36.150Z,1011.59
2022-12-19T07:34:35.176Z,1011.59
2022-12-19T07:36:35.458Z,1011.78
2022-12-19T07:38:35.604Z,1011.78
2022-12-19T07:40:35.999Z,1011.67
2022-12-19T07:42:42.117Z,1011.67
2022-12-19T07:44:35.478Z,1011.71
2022-12-19T07:46:36.016Z,1011.71
2022-12-19T07:48:36.074Z,1011.8
2022-12-19T07:50:35.218Z,1011.8
2022-12-19T07:52:35.502Z,1011.83
2022-12-19T07:54:36.258Z,1011.83
2022-12-19T07:56:35.835Z,1011.62
2022-12-19T07:58:35.508Z,1011.62
2022-12-19T08:00:38.985Z,1011.7
2022-12-19T08:02:37.239Z,1011.7
2022-12-19T08:04:35.261Z,1011.97
2022-12-19T08:06:40.729Z,1011.97
2022-12-19T08:08:35.726Z,1011.91
2022-12-19T08:10:36.116Z,1011.91
2022-12-19T08:12:35.291Z,1011.87
2022-12-19T08:14:35.410Z,1011.87
2022-12-19T08:16:55.630Z,1011.99
2022-12-19T08:18:36.022Z,1011.99
2022-12-19T08:20:35.277Z,1012
2022-12-19T08:22:35.607Z,1012
2022-12-19T08:24:35.806Z,1012.08
2022-12-19T08:26:41.888Z,1012.08
2022-12-19T08:28:35.099Z,1011.97
2022-12-19T08:30:35.591Z,1011.97
2022-12-19T08:32:43.638Z,1012.01
2022-12-19T08:34:35.210Z,1012.03
2022-12-19T08:36:36.320Z,1012.03
2022-12-19T08:38:35.776Z,1012.11
2022-12-19T08:40:36.087Z,1012.11
2022-12-19T08:42:35.851Z,1012.05
2022-12-19T08:44:36.321Z,1012.05
2022-12-19T08:46:35.644Z,1012.04
2022-12-19T08:48:35.528Z,1012.04
2022-12-19T08:50:36.297Z,1012.05
2022-12-19T08:52:35.961Z,1012.05
2022-12-19T08:54:38.981Z,1012.08
2022-12-19T08:56:35.597Z,1012.08
2022-12-19T08:58:35.719Z,1012.1
2022-12-19T09:00:41.598Z,1012.1
2022-12-19T09:02:36.861Z,1012.01
2022-12-19T09:06:41.873Z,1011.97
2022-12-19T09:08:35.564Z,1011.97
2022-12-19T09:10:37.044Z,1012.02
2022-12-19T09:12:36.072Z,1012.02
2022-12-19T09:14:38.237Z,1012.04
2022-12-19T09:16:35.926Z,1012.04
2022-12-19T09:18:35.959Z,1011.97
2022-12-19T09:20:40.772Z,1011.97
2022-12-19T09:22:40.906Z,1012
2022-12-19T09:24:41.770Z,1012
2022-12-19T09:26:38.588Z,1012.01
2022-12-19T09:29:01.599Z,1012.01
2022-12-19T09:30:35.761Z,1012.07
2022-12-19T09:32:35.299Z,1012.07
2022-12-19T09:34:46.161Z,1012.07
2022-12-19T09:36:35.968Z,1012.07
2022-12-19T09:38:38.145Z,1012.22
2022-12-19T09:40:35.804Z,1012.22
2022-12-19T09:42:41.158Z,1012.16
2022-12-19T09:44:35.956Z,1012.16
2022-12-19T09:46:36.035Z,1012.19
2022-12-19T09:48:50.916Z,1012.19
2022-12-19T09:50:35.432Z,1012.06
2022-12-19T09:52:38.157Z,1012.06
2022-12-19T09:54:35.796Z,1012.21
2022-12-19T09:56:45.567Z,1012.21
2022-12-19T09:58:39.567Z,1012.19
2022-12-19T10:00:39.163Z,1012.19
2022-12-19T10:02:37.297Z,1012.15
2022-12-19T10:04:35.662Z,1012.15
2022-12-19T10:08:28.337Z,1012.18
2022-12-19T10:13:24.569Z,1012.19
2022-12-19T10:16:35.430Z,1012.27
2022-12-19T10:18:37.684Z,1012.41
2022-12-19T10:20:35.205Z,1012.41
2022-12-19T10:22:52.279Z,1012.2
2022-12-19T10:24:35.652Z,1012.2
2022-12-19T10:26:41.673Z,1012.23
2022-12-19T10:28:35.401Z,1012.23
2022-12-19T10:30:35.995Z,1012.2
2022-12-19T10:32:35.596Z,1012.2
2022-12-19T10:34:38.686Z,1012.29
2022-12-19T10:37:24.378Z,1012.29
2022-12-19T10:38:35.399Z,1012.24
2022-12-19T10:40:40.250Z,1012.24
2022-12-19T10:42:35.991Z,1012.11
2022-12-19T10:44:36.891Z,1012.11
2022-12-19T10:46:35.976Z,1012.09
2022-12-19T10:48:42.777Z,1012.09
2022-12-19T10:50:43.255Z,1012.21
2022-12-19T10:52:39.682Z,1012.21
2022-12-19T10:54:44.741Z,1012.15
2022-12-19T10:56:38.718Z,1012.15
2022-12-19T10:58:35.225Z,1012.01
2022-12-19T11:00:44.220Z,1012.01
2022-12-19T11:02:41.494Z,1012
2022-12-19T11:04:36.604Z,1012
2022-12-19T11:06:35.407Z,1012.06
2022-12-19T11:08:36.117Z,1012.06
2022-12-19T11:31:58.444Z,1011.81
2022-12-19T11:33:02.145Z,1011.92
2022-12-19T11:36:35.387Z,1011.92
2022-12-19T11:38:35.479Z,1011.92
2022-12-19T11:40:35.712Z,1011.92
2022-12-19T11:42:35.945Z,1011.76
2022-12-19T11:44:35.955Z,1011.76
2022-12-19T11:46:35.609Z,1011.65
2022-12-19T11:48:37.221Z,1011.65
2022-12-19T11:50:35.421Z,1011.7
2022-12-19T11:53:26.152Z,1011.63
2022-12-19T11:54:35.903Z,1011.63
2022-12-19T11:56:39.370Z,1011.66
2022-12-19T11:58:35.768Z,1011.66
2022-12-19T12:00:39.657Z,1011.6
2022-12-19T12:02:37.629Z,1011.6
2022-12-19T12:04:37.671Z,1011.45
2022-12-19T12:06:45.271Z,1011.45
2022-12-19T12:38:18.795Z,1011.33
2022-12-19T12:38:42.858Z,1011.33
2022-12-19T12:40:37.427Z,1011.22
2022-12-19T12:42:35.908Z,1011.22
2022-12-19T12:44:46.223Z,1011.33
2022-12-19T12:46:36.008Z,1011.33
2022-12-19T12:48:37.273Z,1011.5
2022-12-19T12:50:35.288Z,1011.5
2022-12-19T12:52:36.353Z,1011.29
2022-12-19T12:54:35.909Z,1011.29
2022-12-19T12:56:36.933Z,1011.24
2022-12-19T12:58:39.580Z,1011.24
2022-12-19T13:00:38.361Z,1011.21
2022-12-19T13:02:36.787Z,1011.21
2022-12-19T13:04:35.801Z,1011.18
2022-12-19T13:06:35.937Z,1011.18
2022-12-19T13:08:35.537Z,1010.99
2022-12-19T13:10:35.885Z,1010.99
2022-12-19T13:12:35.278Z,1010.94
2022-12-19T13:14:35.605Z,1010.94
2022-12-19T13:16:37.254Z,1010.87
2022-12-19T13:18:35.425Z,1010.87
2022-12-19T13:20:39.052Z,1010.84
2022-12-19T13:22:35.138Z,1010.84
2022-12-19T13:24:39.027Z,1010.87
2022-12-19T13:26:42.222Z,1010.87
2022-12-19T13:28:35.053Z,1010.81
2022-12-19T13:30:45.906Z,1010.81
2022-12-19T13:32:35.732Z,1010.82
2022-12-19T13:34:35.709Z,1010.82
2022-12-19T13:40:44.683Z,1010.68
2022-12-19T13:42:35.255Z,1010.68
2022-12-19T13:44:35.766Z,1010.62
2022-12-19T13:46:35.731Z,1010.62
2022-12-19T13:48:35.581Z,1010.59
2022-12-19T13:50:35.795Z,1010.59
2022-12-19T13:52:35.209Z,1010.58
2022-12-19T13:54:35.386Z,1010.58
2022-12-19T13:56:35.707Z,1010.54
2022-12-19T13:58:40.833Z,1010.54
2022-12-19T14:00:38.143Z,1010.52
2022-12-19T14:02:45.140Z,1010.52
2022-12-19T14:04:42.295Z,1010.69
2022-12-19T14:06:52.902Z,1010.69
2022-12-19T14:14:28.468Z,1010.66
2022-12-19T14:16:56.264Z,1010.79
2022-12-19T14:19:17.818Z,1010.67
2022-12-19T14:22:49.049Z,1010.67
2022-12-19T14:24:35.361Z,1010.78
2022-12-19T14:29:05.927Z,1010.82
2022-12-19T14:31:05.646Z,1010.82
2022-12-19T14:36:26.615Z,1010.78
2022-12-19T14:36:49.579Z,1010.78
2022-12-19T14:40:01.853Z,1010.9
2022-12-19T14:52:08.736Z,1010.7
2022-12-19T14:56:58.249Z,1010.95
2022-12-19T14:57:10.101Z,1010.95
2022-12-19T14:57:11.273Z,1010.95
2022-12-19T15:01:36.758Z,1010.82
2022-12-19T15:02:50.657Z,1010.75
2022-12-19T15:05:24.168Z,1010.75
2022-12-19T15:07:34.133Z,1010.65
2022-12-19T15:15:07.054Z,1010.64
2022-12-19T15:15:33.429Z,1010.64
2022-12-19T15:16:36.615Z,1010.64
2022-12-19T15:18:35.349Z,1010.64
2022-12-19T15:20:35.792Z,1010.61
2022-12-19T15:22:35.387Z,1010.49
2022-12-19T15:24:35.793Z,1010.49
2022-12-19T15:26:39.664Z,1010.47
2022-12-19T15:28:35.539Z,1010.47
2022-12-19T15:30:36.037Z,1010.34
2022-12-19T15:32:35.351Z,1010.34
2022-12-19T15:35:13.775Z,1010.61
2022-12-19T15:36:35.052Z,1010.61
2022-12-19T15:38:35.491Z,1010.53
2022-12-19T15:40:35.778Z,1010.53
2022-12-19T15:42:35.984Z,1010.63
2022-12-19T15:44:39.025Z,1010.63
2022-12-19T15:46:35.907Z,1010.66
2022-12-19T15:48:35.890Z,1010.66
2022-12-19T15:50:35.238Z,1010.64
2022-12-19T15:52:35.633Z,1010.64
2022-12-19T15:55:13.782Z,1010.61
2022-12-19T15:56:35.003Z,1010.61
2022-12-19T15:58:35.210Z,1010.51
2022-12-19T16:00:35.608Z,1010.51
2022-12-19T16:03:13.200Z,1010.52
2022-12-19T16:04:37.235Z,1010.52
2022-12-19T16:06:36.100Z,1010.51
2022-12-19T16:08:35.359Z,1010.51
2022-12-19T16:10:35.604Z,1010.59
2022-12-19T16:12:36.721Z,1010.59
2022-12-19T16:14:35.273Z,1010.62
2022-12-19T16:16:38.859Z,1010.62
2022-12-19T16:18:35.969Z,1010.58
2022-12-19T16:20:35.443Z,1010.58
2022-12-19T16:22:35.758Z,1010.62
2022-12-19T16:24:36.162Z,1010.62
2022-12-19T16:26:35.145Z,1010.59
2022-12-19T16:28:35.422Z,1010.59
2022-12-19T16:30:41.306Z,1010.59
2022-12-19T16:32:35.951Z,1010.59
2022-12-19T16:34:35.600Z,1010.65
2022-12-19T16:36:40.218Z,1010.65
2022-12-19T16:38:35.706Z,1010.53
2022-12-19T16:40:36.147Z,1010.53
2022-12-19T16:42:35.258Z,1010.65
2022-12-19T16:44:41.909Z,1010.65
2022-12-19T16:46:36.120Z,1010.54
2022-12-19T16:48:36.176Z,1010.54
2022-12-19T16:50:35.261Z,1010.39
2022-12-19T16:52:42.197Z,1010.39
2022-12-19T16:54:35.608Z,1010.55
2022-12-19T16:56:35.202Z,1010.55
2022-12-19T16:58:41.244Z,1010.48
2022-12-19T17:00:39.100Z,1010.48
2022-12-19T17:02:35.931Z,1010.43
2022-12-19T17:04:35.395Z,1010.43
2022-12-19T17:06:35.557Z,1010.47
2022-12-19T17:08:35.815Z,1010.47
2022-12-19T17:10:37.856Z,1010.46
2022-12-19T17:12:35.586Z,1010.46
2022-12-19T17:14:35.931Z,1010.44
2022-12-19T17:16:35.635Z,1010.44
2022-12-19T17:18:35.180Z,1010.52
2022-12-19T17:20:35.726Z,1010.52
2022-12-19T17:22:35.762Z,1010.48
2022-12-19T17:24:34.985Z,1010.48
2022-12-19T17:26:40.550Z,1010.42
2022-12-19T17:28:35.657Z,1010.42
2022-12-19T17:30:35.962Z,1010.71
2022-12-19T17:32:44.317Z,1010.71
2022-12-19T17:34:35.774Z,1010.62
2022-12-19T17:36:40.039Z,1010.62
2022-12-19T17:38:35.350Z,1010.45
2022-12-19T17:40:35.617Z,1010.45
2022-12-19T17:42:37.621Z,1010.53
2022-12-19T17:44:35.984Z,1010.53
2022-12-19T17:46:35.702Z,1010.57
2022-12-19T17:48:36.986Z,1010.57
2022-12-19T17:50:35.873Z,1010.39
2022-12-19T17:52:35.112Z,1010.39
2022-12-19T17:54:35.481Z,1010.52
2022-12-19T17:56:35.907Z,1010.52
2022-12-19T17:58:36.153Z,1010.26
2022-12-19T18:00:47.839Z,1010.26
2022-12-19T18:02:36.324Z,1010.22
2022-12-19T18:04:35.754Z,1010.22
2022-12-19T18:06:42.641Z,1010.26
2022-12-19T18:08:35.520Z,1010.26
2022-12-19T18:10:35.949Z,1010.24
2022-12-19T18:12:35.191Z,1010.24
2022-12-19T18:14:35.494Z,1010.14
2022-12-19T18:16:35.842Z,1010.14
2022-12-19T18:18:35.896Z,1010.11
2022-12-19T18:20:43.107Z,1010.11
2022-12-19T18:22:35.457Z,1010.28
2022-12-19T18:24:35.559Z,1010.28
2022-12-19T18:26:37.007Z,1010.34
2022-12-19T18:28:36.051Z,1010.34
2022-12-19T18:30:35.489Z,1010.44
2022-12-19T18:32:35.635Z,1010.44
2022-12-19T18:34:41.688Z,1010.38
2022-12-19T18:36:35.207Z,1010.38
2022-12-19T18:38:35.219Z,1010.47
2022-12-19T18:40:44.665Z,1010.45
2022-12-19T18:42:35.892Z,1010.45
2022-12-19T18:44:35.205Z,1010.45
2022-12-19T18:46:36.101Z,1010.7
2022-12-19T18:48:36.262Z,1010.6
2022-12-19T18:50:36.019Z,1010.6
2022-12-19T18:52:35.338Z,1010.84
2022-12-19T18:54:35.559Z,1010.84
2022-12-19T18:56:35.731Z,1010.78
2022-12-19T18:58:35.986Z,1010.78
2022-12-19T19:00:41.016Z,1010.7
2022-12-19T19:02:37.110Z,1010.7
2022-12-19T19:04:35.265Z,1010.81
2022-12-19T19:06:38.096Z,1010.81
2022-12-19T19:08:35.885Z,1010.74
2022-12-19T19:10:36.083Z,1010.74
2022-12-19T19:12:35.382Z,1010.63
2022-12-19T19:14:35.383Z,1010.63
2022-12-19T19:16:35.745Z,1010.98
2022-12-19T19:18:35.686Z,1010.98
2022-12-19T19:20:35.978Z,1010.96
2022-12-19T19:22:35.233Z,1010.96
2022-12-19T19:24:35.466Z,1010.95
2022-12-19T19:26:35.736Z,1010.95
2022-12-19T19:28:35.894Z,1010.96
2022-12-19T19:30:35.347Z,1010.96
2022-12-19T19:32:35.715Z,1011.1
2022-12-19T19:34:36.097Z,1011.1
2022-12-19T19:36:44.986Z,1011.08
2022-12-19T19:38:35.758Z,1011.08
2022-12-19T19:40:35.192Z,1010.99
2022-12-19T19:42:35.546Z,1010.99
2022-12-19T19:44:35.872Z,1010.93
2022-12-19T19:46:35.651Z,1010.93
2022-12-19T19:48:35.309Z,1010.97
2022-12-19T19:50:35.824Z,1010.97
2022-12-19T19:52:37.273Z,1010.98
2022-12-19T19:54:35.366Z,1010.98
2022-12-19T19:56:35.739Z,1010.97
2022-12-19T19:58:36.048Z,1010.97
2022-12-19T20:00:39.026Z,1010.98
2022-12-19T20:02:40.168Z,1010.98
2022-12-19T20:04:35.469Z,1010.96
2022-12-19T20:06:35.483Z,1010.96
2022-12-19T20:08:39.793Z,1010.92
2022-12-19T20:10:35.322Z,1010.92
2022-12-19T20:12:35.640Z,1011.03
2022-12-19T20:14:36.012Z,1011.03
2022-12-19T20:16:35.465Z,1010.94
2022-12-19T20:18:35.360Z,1010.94
2022-12-19T20:20:35.882Z,1010.85
2022-12-19T20:22:35.300Z,1010.85
2022-12-19T20:24:35.543Z,1010.8
2022-12-19T20:26:35.888Z,1010.8
2022-12-19T20:28:35.136Z,1010.67
2022-12-19T20:30:35.382Z,1010.67
2022-12-19T20:32:36.728Z,1010.81
2022-12-19T20:34:35.732Z,1010.81
2022-12-19T20:36:35.200Z,1010.87
2022-12-19T20:38:35.470Z,1010.87
2022-12-19T20:40:35.805Z,1010.66
2022-12-19T20:42:35.206Z,1010.66
2022-12-19T20:44:38.931Z,1011.01
2022-12-19T20:46:36.243Z,1011.01
2022-12-19T20:48:35.131Z,1010.91
2022-12-19T20:50:41.244Z,1010.91
2022-12-19T20:52:35.869Z,1011.01
2022-12-19T20:54:35.080Z,1011.01
2022-12-19T20:56:35.535Z,1010.97
2022-12-19T20:58:35.976Z,1010.97
2022-12-19T21:00:38.874Z,1011.01
2022-12-19T21:03:16.871Z,1011.01
2022-12-19T21:04:37.390Z,1010.98
2022-12-19T21:06:35.403Z,1010.98
2022-12-19T21:08:35.930Z,1010.98
2022-12-19T21:10:35.182Z,1010.98
2022-12-19T21:12:35.575Z,1011.11
2022-12-19T21:14:35.859Z,1011.11
2022-12-19T21:16:36.446Z,1011.22
2022-12-19T21:18:36.937Z,1011.22
2022-12-19T21:20:45.188Z,1011.12
2022-12-19T21:22:35.246Z,1011.12
2022-12-19T21:24:35.429Z,1011.05
2022-12-19T21:26:35.815Z,1011.05
2022-12-19T21:28:35.091Z,1010.98
2022-12-19T21:30:35.635Z,1010.98
2022-12-19T21:32:41.599Z,1011
2022-12-19T21:34:35.078Z,1011
2022-12-19T21:36:35.488Z,1011.01
2022-12-19T21:38:35.748Z,1011.01
2022-12-19T21:40:36.062Z,1011.03
2022-12-19T21:42:35.306Z,1011.03
2022-12-19T21:44:35.462Z,1011.03
2022-12-19T21:46:36.025Z,1011.03
2022-12-19T21:48:36.518Z,1010.95
2022-12-19T21:50:35.631Z,1010.95
2022-12-19T21:52:35.829Z,1011.01
2022-12-19T21:54:35.941Z,1011.01
2022-12-19T21:56:35.239Z,1011.19
2022-12-19T21:58:35.597Z,1011.19
2022-12-19T22:00:41.311Z,1010.99
2022-12-19T22:02:36.573Z,1010.99
2022-12-19T22:04:36.478Z,1010.93
2022-12-19T22:06:40.016Z,1010.93
2022-12-19T22:08:35.995Z,1010.93
2022-12-19T22:10:35.335Z,1010.88
2022-12-19T22:12:37.041Z,1010.88
2022-12-19T22:14:36.712Z,1010.73
2022-12-19T22:16:35.735Z,1010.73
2022-12-19T22:18:35.552Z,1010.6
2022-12-19T22:20:35.898Z,1010.6
2022-12-19T22:22:35.379Z,1010.81
2022-12-19T22:24:35.629Z,1010.81
2022-12-19T22:26:35.697Z,1010.69
2022-12-19T22:28:36.073Z,1010.69
2022-12-19T22:30:44.547Z,1010.68
2022-12-19T22:32:35.699Z,1010.68
2022-12-19T22:34:35.756Z,1010.5
2022-12-19T22:36:40.332Z,1010.5
2022-12-19T22:38:35.284Z,1010.56
2022-12-19T22:40:35.581Z,1010.56
2022-12-19T22:42:36.020Z,1010.59
2022-12-19T22:44:35.352Z,1010.59
2022-12-19T22:46:35.639Z,1010.59
2022-12-19T22:48:35.744Z,1010.59
2022-12-19T22:50:36.198Z,1010.48
2022-12-19T22:52:35.516Z,1010.48
2022-12-19T22:54:35.645Z,1010.49
2022-12-19T22:56:35.924Z,1010.49
2022-12-19T22:58:35.335Z,1010.42
2022-12-19T23:00:45.739Z,1010.42
2022-12-19T23:02:36.495Z,1010.53
2022-12-19T23:04:36.879Z,1010.53
2022-12-19T23:06:35.535Z,1010.49
2022-12-19T23:08:35.872Z,1010.49
2022-12-19T23:10:35.188Z,1010.56
2022-12-19T23:12:35.684Z,1010.56
2022-12-19T23:14:36.078Z,1010.52
2022-12-19T23:16:35.790Z,1010.52
2022-12-19T23:18:35.675Z,1010.47
2022-12-19T23:20:35.461Z,1010.47
2022-12-19T23:22:35.827Z,1010.37
2022-12-19T23:24:37.471Z,1010.37
2022-12-19T23:26:38.776Z,1010.32
2022-12-19T23:28:35.579Z,1010.32
2022-12-19T23:30:35.823Z,1010.58
2022-12-19T23:32:35.443Z,1010.58
2022-12-19T23:34:35.769Z,1010.48
2022-12-19T23:37:20.701Z,1010.48
2022-12-19T23:38:35.189Z,1010.29
2022-12-19T23:40:35.587Z,1010.29
2022-12-19T23:42:36.466Z,1010.26
2022-12-19T23:44:35.420Z,1010.26
2022-12-19T23:46:35.963Z,1010.19
2022-12-19T23:48:35.102Z,1010.19
2022-12-19T23:50:35.543Z,1010.25
2022-12-19T23:52:35.948Z,1010.25
2022-12-19T23:54:35.292Z,1010.23
2022-12-19T23:56:35.677Z,1010.23
2022-12-19T23:58:47.222Z,1010.35
